Time;durP1;ratioP1;P1;durP2;ratioP2;P2;SDS_P1;SDS_P2;PMS_P1;PMS_P2;Temp;Humidity;BMP_temperature;BMP_pressure;BME280_temperature;BME280_humidity;BME280_pressure;Samples;Min_cycle;Max_cycle;Signal;HPM_P1;HPM_P2
2021/05/23 00:00:23;;;;;;;5.65;3.08;;;;;;;9.92;79.54;98395.48;1672638;85;21108;-71
2021/05/23 00:02:52;;;;;;;4.67;3.00;;;;;;;9.77;79.27;98398.91;1682086;85;21132;-73
2021/05/23 00:05:19;;;;;;;5.40;3.05;;;;;;;9.63;79.28;98392.79;1711001;83;21143;-71
2021/05/23 00:07:51;;;;;;;4.67;3.10;;;;;;;9.47;79.28;98406.27;1712663;83;21106;-70
2021/05/23 00:10:17;;;;;;;4.65;2.87;;;;;;;9.30;79.37;98400.34;1688855;85;21190;-71
2021/05/23 00:12:43;;;;;;;4.97;2.92;;;;;;;9.22;79.42;98406.97;1679624;85;21087;-71
2021/05/23 00:15:10;;;;;;;4.05;2.42;;;;;;;9.11;79.57;98401.03;1684726;85;21202;-72
2021/05/23 00:17:36;;;;;;;4.33;2.72;;;;;;;9.02;79.58;98397.96;1706880;83;21120;-71
2021/05/23 00:20:02;;;;;;;3.87;2.67;;;;;;;8.96;79.54;98398.19;1707139;83;21124;-71
2021/05/23 00:22:28;;;;;;;3.62;2.77;;;;;;;8.91;79.56;98397.83;1717908;83;21064;-72
2021/05/23 00:24:54;;;;;;;4.30;2.77;;;;;;;8.80;79.64;98398.63;1721700;83;21135;-71
2021/05/23 00:27:19;;;;;;;3.80;2.60;;;;;;;8.71;79.74;98397.52;1707006;83;21125;-71
2021/05/23 00:29:49;;;;;;;3.87;2.83;;;;;;;8.62;79.78;98400.05;1689237;85;22103;-73
2021/05/23 00:32:24;;;;;;;4.85;2.83;;;;;;;8.59;79.83;98400.04;1690928;85;21072;-72
2021/05/23 00:34:53;;;;;;;4.30;2.83;;;;;;;8.50;79.96;98403.16;1720617;83;21036;-72
2021/05/23 00:37:18;;;;;;;5.92;2.95;;;;;;;8.43;80.04;98407.25;1721362;82;21102;-72
2021/05/23 00:39:44;;;;;;;3.77;2.77;;;;;;;8.36;80.18;98409.92;1721743;83;21052;-70
2021/05/23 00:42:11;;;;;;;3.45;2.83;;;;;;;8.28;80.27;98406.45;1721864;83;20977;-73
2021/05/23 00:44:36;;;;;;;4.22;3.10;;;;;;;8.20;80.46;98412.45;1721701;83;21158;-71
2021/05/23 00:47:02;;;;;;;4.55;3.25;;;;;;;8.14;80.60;98419.41;1722008;83;21006;-71
2021/05/23 00:49:28;;;;;;;4.72;3.55;;;;;;;8.07;80.80;98419.40;1721907;83;21312;-72
2021/05/23 00:51:54;;;;;;;4.78;3.37;;;;;;;8.01;80.95;98426.36;1721745;83;21183;-72
2021/05/23 00:54:19;;;;;;;5.12;3.60;;;;;;;7.95;81.14;98423.27;1697337;83;20951;-72
2021/05/23 00:56:45;;;;;;;4.97;3.83;;;;;;;7.90;81.29;98426.94;1721982;83;21423;-72
2021/05/23 00:59:11;;;;;;;5.42;3.62;;;;;;;7.85;81.46;98432.14;1689199;85;21477;-72
2021/05/23 01:01:47;;;;;;;6.70;3.95;;;;;;;7.82;81.60;98434.27;1691526;84;21124;-72
2021/05/23 01:04:14;;;;;;;4.42;3.40;;;;;;;7.79;81.70;98443.91;1688269;85;21067;-72
2021/05/23 01:06:40;;;;;;;4.45;3.17;;;;;;;7.75;81.83;98455.31;1721947;83;21078;-70
2021/05/23 01:09:07;;;;;;;5.50;3.50;;;;;;;7.75;81.89;98453.96;1692933;85;21060;-72
2021/05/23 01:11:36;;;;;;;5.42;3.72;;;;;;;7.73;81.90;98446.04;1721334;83;21083;-73
2021/05/23 01:14:18;;;;;;;6.00;3.70;;;;;;;7.71;81.97;98457.22;1687319;85;21128;-70
2021/05/23 01:16:48;;;;;;;4.45;3.22;;;;;;;7.67;82.07;98441.59;1720320;83;21687;-71
2021/05/23 01:19:33;;;;;;;4.87;3.33;;;;;;;7.63;82.19;98444.85;1721803;83;21063;-72
2021/05/23 01:22:20;;;;;;;4.50;3.70;;;;;;;7.63;82.24;98441.38;1635347;87;21167;-71
2021/05/23 01:25:01;;;;;;;3.92;3.52;;;;;;;7.61;82.26;98441.78;1744626;81;21029;-71
2021/05/23 01:27:35;;;;;;;4.60;3.35;;;;;;;7.60;82.30;98432.69;1759670;81;21034;-72
2021/05/23 01:29:59;;;;;;;4.37;3.50;;;;;;;7.59;82.36;98434.62;1735099;81;21416;-71
2021/05/23 01:32:24;;;;;;;4.05;3.52;;;;;;;7.62;82.45;98432.50;1760656;81;21077;-72
2021/05/23 01:34:50;;;;;;;5.42;3.42;;;;;;;7.66;82.52;98433.27;1760391;81;21552;-72
2021/05/23 01:37:16;;;;;;;4.17;3.30;;;;;;;7.69;82.52;98423.06;1760500;81;21590;-71
2021/05/23 01:39:44;;;;;;;5.53;4.03;;;;;;;7.73;82.49;98429.23;1760237;81;21050;-73
2021/05/23 01:42:18;;;;;;;4.83;3.37;;;;;;;7.74;82.47;98432.70;1746897;81;21642;-72
2021/05/23 01:44:44;;;;;;;4.80;3.60;;;;;;;7.69;82.51;98432.53;1759326;81;21011;-71
2021/05/23 01:47:14;;;;;;;4.20;3.80;;;;;;;7.67;82.57;98442.17;1759456;80;21149;-72
2021/05/23 01:49:43;;;;;;;5.55;3.70;;;;;;;5.09;82.34;98071.64;1759306;81;21099;-71
2021/05/23 01:52:13;;;;;;;5.00;3.60;;;;;;;7.57;82.68;98436.93;1759976;81;21103;-73
2021/05/23 01:54:44;;;;;;;4.65;3.80;;;;;;;7.54;82.77;98437.70;1742222;81;21041;-72
2021/05/23 01:57:10;;;;;;;5.30;4.10;;;;;;;7.49;82.88;98443.47;1706683;81;22210;-72
2021/05/23 01:59:40;;;;;;;5.05;4.12;;;;;;;7.45;82.97;98444.05;1759883;81;22310;-71
2021/05/23 02:02:06;;;;;;;5.97;4.25;;;;;;;7.43;83.14;98443.08;1759207;81;21102;-71
2021/05/23 02:04:32;;;;;;;6.45;4.58;;;;;;;7.39;83.24;98438.81;1755219;81;21030;-72
2021/05/23 02:06:58;;;;;;;6.53;4.78;;;;;;;7.40;83.40;98437.09;1759919;81;21377;-72
2021/05/23 02:09:26;;;;;;;6.78;5.10;;;;;;;7.43;83.51;98446.36;1759591;81;21066;-72
2021/05/23 02:11:56;;;;;;;6.92;4.28;;;;;;;7.44;83.60;98444.61;1755031;81;21433;-71
2021/05/23 02:14:25;;;;;;;7.92;4.45;;;;;;;7.47;83.76;98446.55;1759362;81;21102;-72
2021/05/23 02:16:56;;;;;;;5.62;4.37;;;;;;;7.47;83.76;98446.55;1758225;81;21080;-73
2021/05/23 02:19:46;;;;;;;5.72;4.28;;;;;;;7.49;83.78;98453.70;1758509;81;21006;-73
2021/05/23 02:22:17;;;;;;;6.03;4.30;;;;;;;7.49;83.75;98448.30;1688231;84;21093;-72
2021/05/23 02:24:43;;;;;;;5.03;4.42;;;;;;;7.50;83.74;98445.80;1707110;83;21735;-72
2021/05/23 02:27:09;;;;;;;6.58;4.58;;;;;;;7.49;83.72;98448.88;1708414;83;21089;-74
2021/05/23 02:29:35;;;;;;;5.78;4.50;;;;;;;7.47;83.72;98454.65;1704012;83;21137;-71
2021/05/23 02:32:02;;;;;;;5.33;4.53;;;;;;;7.47;83.82;98452.53;1710273;83;21146;-72
2021/05/23 02:34:28;;;;;;;;;;;;;;;7.47;83.81;98453.30;1660976;85;21116;-71
2021/05/23 02:36:53;;;;;;;8.45;4.75;;;;;;;7.50;83.82;98454.47;1709329;83;20299;-73
2021/05/23 02:39:20;;;;;;;6.33;4.60;;;;;;;7.52;83.61;98465.09;1709365;83;21566;-72
2021/05/23 02:41:46;;;;;;;6.58;4.67;;;;;;;7.50;83.68;98466.07;1709862;83;21799;-71
2021/05/23 02:44:12;;;;;;;5.17;4.45;;;;;;;7.50;83.75;98471.47;1703330;83;21096;-71
2021/05/23 02:46:38;;;;;;;7.35;4.65;;;;;;;7.50;83.74;98467.98;1708828;83;21132;-73
2021/05/23 02:49:04;;;;;;;5.78;5.15;;;;;;;7.49;83.80;98469.91;1709744;83;21620;-72
2021/05/23 02:51:30;;;;;;;6.03;5.37;;;;;;;7.49;83.85;98463.73;1710588;83;21045;-71
2021/05/23 02:53:55;;;;;;;6.83;5.92;;;;;;;7.49;83.86;98463.73;1705746;83;21574;-71
2021/05/23 02:56:21;;;;;;;6.90;5.75;;;;;;;7.49;83.88;98468.55;1709346;83;21062;-72
2021/05/23 02:58:47;;;;;;;8.05;6.10;;;;;;;7.51;83.93;98473.01;1718253;83;21036;-72
2021/05/23 03:01:12;;;;;;;6.75;5.55;;;;;;;7.52;83.95;98462.97;1710297;83;21076;-71
2021/05/23 03:03:38;;;;;;;5.67;5.05;;;;;;;7.54;83.98;98468.77;1717784;83;21072;-72
2021/05/23 03:06:04;;;;;;;8.75;4.95;;;;;;;7.58;84.01;98468.19;1724296;83;21012;-72
2021/05/23 03:08:30;;;;;;;5.83;4.40;;;;;;;7.64;84.02;98462.63;1714446;83;21672;-72
2021/05/23 03:10:56;;;;;;;4.67;4.08;;;;;;;7.74;84.07;98465.14;1718404;83;21593;-71
2021/05/23 03:13:21;;;;;;;4.53;4.10;;;;;;;7.91;84.03;98470.38;1721325;83;21080;-72
2021/05/23 03:15:47;;;;;;;6.40;4.10;;;;;;;8.06;83.83;98471.95;1703222;83;21117;-72
2021/05/23 03:18:13;;;;;;;6.95;3.77;;;;;;;8.21;83.49;98476.22;1671195;85;21117;-71
2021/05/23 03:20:40;;;;;;;5.22;4.03;;;;;;;8.29;83.12;98476.20;1745987;81;21056;-72
2021/05/23 03:23:06;;;;;;;4.95;3.62;;;;;;;7.69;82.80;98378.47;1748264;82;21088;-72
2021/05/23 03:25:31;;;;;;;4.87;3.58;;;;;;;8.44;82.62;98485.31;1745689;82;21022;-73
2021/05/23 03:27:58;;;;;;;4.72;3.70;;;;;;;8.53;82.47;98480.09;1745064;82;21084;-73
2021/05/23 03:30:27;;;;;;;5.42;4.20;;;;;;;8.62;82.23;98478.55;1745721;82;21059;-71
2021/05/23 03:32:53;;;;;;;4.85;3.90;;;;;;;8.72;82.03;98474.27;1731815;82;22318;-72
2021/05/23 03:35:19;;;;;;;4.10;3.58;;;;;;;8.82;81.81;98472.12;1717158;83;21119;-73
2021/05/23 03:37:45;;;;;;;4.20;3.80;;;;;;;8.92;81.59;98477.33;1731990;82;21603;-72
2021/05/23 03:40:11;;;;;;;7.20;4.22;;;;;;;9.00;81.39;98473.44;1748220;82;21518;-72
2021/05/23 03:42:37;;;;;;;4.58;3.75;;;;;;;9.10;81.26;98476.67;1738477;82;21080;-72
2021/05/23 03:45:04;;;;;;;6.90;4.17;;;;;;;9.20;81.16;98482.47;1748138;82;21565;-71
2021/05/23 03:47:30;;;;;;;4.67;3.80;;;;;;;9.26;80.98;98485.72;1701205;82;21668;-72
2021/05/23 03:49:55;;;;;;;5.90;4.15;;;;;;;9.34;80.83;98486.47;1717270;83;21085;-72
2021/05/23 03:52:21;;;;;;;6.30;4.05;;;;;;;9.41;80.71;98487.01;1727197;82;21616;-73
2021/05/23 03:54:47;;;;;;;4.30;3.80;;;;;;;9.47;80.53;98487.58;1730363;82;21577;-73
2021/05/23 03:57:13;;;;;;;4.90;3.85;;;;;;;9.55;80.30;98492.39;1720243;82;21077;-72
2021/05/23 03:59:39;;;;;;;5.55;3.98;;;;;;;9.64;80.13;98490.01;1717348;82;21049;-72
2021/05/23 04:02:05;;;;;;;5.35;4.15;;;;;;;9.72;80.02;98495.58;1733490;82;21092;-71
2021/05/23 04:04:49;;;;;;;3.83;3.40;;;;;;;9.82;79.79;98494.55;1732075;82;21020;-72
2021/05/23 04:07:18;;;;;;;5.37;4.10;;;;;;;9.91;79.54;98498.38;1747932;82;21107;-72
2021/05/23 04:09:45;;;;;;;4.30;3.90;;;;;;;9.98;79.31;98510.55;1746222;82;21565;-71
2021/05/23 04:12:14;;;;;;;5.30;3.80;;;;;;;10.08;79.11;98510.28;1748288;82;21687;-73
2021/05/23 04:14:40;;;;;;;4.10;3.55;;;;;;;10.18;78.99;98512.74;1720394;82;21115;-72
2021/05/23 04:17:06;;;;;;;4.37;3.62;;;;;;;10.29;78.85;98520.84;1739560;82;21079;-71
2021/05/23 04:19:31;;;;;;;4.53;3.08;;;;;;;10.38;78.75;98527.34;1724443;82;21438;-72
2021/05/23 04:21:57;;;;;;;4.72;3.08;;;;;;;10.48;78.50;98525.73;1727429;81;22330;-72
2021/05/23 04:24:23;;;;;;;3.52;3.22;;;;;;;10.59;78.22;98535.91;1742369;81;21039;-72
2021/05/23 04:26:49;;;;;;;3.15;2.85;;;;;;;10.71;78.07;98536.00;1761642;81;21059;-72
2021/05/23 04:29:15;;;;;;;4.08;2.87;;;;;;;10.83;77.85;98542.87;1759822;81;21070;-73
2021/05/23 04:31:41;;;;;;;3.40;2.83;;;;;;;10.97;77.66;98531.13;1750316;81;21000;-73
2021/05/23 04:34:06;;;;;;;3.62;2.67;;;;;;;11.10;77.20;98530.77;1762025;81;21063;-72
2021/05/23 04:36:32;;;;;;;4.42;2.90;;;;;;;11.24;76.98;98534.72;1744245;81;21104;-72
2021/05/23 04:38:58;;;;;;;4.20;2.80;;;;;;;11.40;76.32;98531.41;1758919;81;21102;-72
2021/05/23 04:41:24;;;;;;;3.65;2.42;;;;;;;11.54;76.08;98531.26;1755428;81;20996;-73
2021/05/23 04:43:49;;;;;;;3.37;2.50;;;;;;;11.69;75.53;98524.27;1761896;81;21087;-73
2021/05/23 04:46:15;;;;;;;4.33;2.62;;;;;;;11.81;75.34;98520.98;1762264;81;21032;-72
2021/05/23 04:48:41;;;;;;;4.22;2.60;;;;;;;11.95;75.07;98519.48;1746426;81;21655;-72
2021/05/23 04:51:06;;;;;;;3.15;2.40;;;;;;;12.11;74.77;98527.61;1730872;81;21540;-72
2021/05/23 04:53:32;;;;;;;3.87;2.33;;;;;;;12.22;74.58;98517.33;1730545;82;22295;-73
2021/05/23 04:55:58;;;;;;;3.45;2.30;;;;;;;12.33;74.18;98523.41;1730693;81;21565;-72
2021/05/23 04:58:24;;;;;;;2.75;2.30;;;;;;;12.47;74.06;98545.55;1717326;81;21059;-73
2021/05/23 05:00:49;;;;;;;2.98;2.12;;;;;;;12.61;73.48;98524.13;1752883;81;20992;-72
2021/05/23 05:03:15;;;;;;;2.92;2.20;;;;;;;12.73;72.94;98525.48;1730536;82;21715;-72
2021/05/23 05:05:41;;;;;;;3.58;2.33;;;;;;;12.85;72.80;98522.17;1730470;83;21553;-72
2021/05/23 05:08:07;;;;;;;3.50;2.40;;;;;;;12.98;72.43;98527.77;1730647;81;21091;-72
2021/05/23 05:10:32;;;;;;;3.05;2.33;;;;;;;13.11;72.08;98521.87;1737439;81;21027;-73
2021/05/23 05:12:58;;;;;;;2.75;2.30;;;;;;;13.23;71.65;98522.63;1730668;81;21095;-72
2021/05/23 05:15:24;;;;;;;2.37;1.90;;;;;;;13.38;71.38;98522.37;1730537;83;21103;-72
2021/05/23 05:17:50;;;;;;;2.98;1.90;;;;;;;13.51;71.21;98528.74;1752550;81;21095;-72
2021/05/23 05:20:15;;;;;;;3.20;2.10;;;;;;;13.69;71.28;98525.63;1757252;81;21036;-72
2021/05/23 05:22:41;;;;;;;3.40;2.00;;;;;;;13.83;70.68;98521.26;1732548;81;21140;-72
2021/05/23 05:25:07;;;;;;;3.25;2.00;;;;;;;13.96;70.16;98522.11;1735611;81;21067;-72
2021/05/23 05:27:33;;;;;;;3.00;1.90;;;;;;;14.11;69.97;98520.45;1758613;81;21064;-72
2021/05/23 05:29:59;;;;;;;3.12;2.00;;;;;;;14.30;69.50;98516.11;1762233;81;21027;-72
2021/05/23 05:32:31;;;;;;;3.37;1.95;;;;;;;14.52;68.99;98517.73;1740475;81;21210;-72
2021/05/23 05:34:57;;;;;;;3.45;2.10;;;;;;;14.72;68.50;98523.13;1759562;81;21032;-71
2021/05/23 05:37:23;;;;;;;3.95;1.98;;;;;;;14.86;67.27;98527.61;1761812;81;21155;-72
2021/05/23 05:39:48;;;;;;;2.83;1.85;;;;;;;15.29;65.92;98527.85;1762070;80;21028;-72
2021/05/23 05:42:14;;;;;;;3.47;1.90;;;;;;;15.29;65.92;98527.85;1758814;81;21043;-73
2021/05/23 05:44:40;;;;;;;3.92;1.72;;;;;;;15.49;65.22;98524.95;1759955;81;21008;-72
2021/05/23 05:47:05;;;;;;;2.25;1.77;;;;;;;15.63;64.23;98526.53;1762144;81;21020;-72
2021/05/23 05:49:31;;;;;;;1.82;1.40;;;;;;;15.79;63.49;98527.06;1762273;81;21099;-73
2021/05/23 05:51:57;;;;;;;2.98;1.60;;;;;;;15.92;62.82;98522.37;1762253;81;21565;-72
2021/05/23 05:54:23;;;;;;;2.33;1.50;;;;;;;16.02;62.29;98518.39;1761159;81;21075;-72
2021/05/23 05:56:49;;;;;;;3.35;1.98;;;;;;;16.11;62.07;98517.88;1762326;80;21036;-72
2021/05/23 05:59:14;;;;;;;3.10;1.70;;;;;;;16.22;61.77;98517.55;1758141;81;21612;-72
2021/05/23 06:01:42;;;;;;;2.55;1.52;;;;;;;16.36;61.83;98524.55;1762051;81;21561;-72
2021/05/23 06:04:08;;;;;;;2.45;1.35;;;;;;;16.49;60.77;98518.45;1759586;81;21651;-72
2021/05/23 06:06:33;;;;;;;2.52;1.77;;;;;;;16.63;60.09;98521.33;1762017;81;21027;-72
2021/05/23 06:08:59;;;;;;;2.47;1.77;;;;;;;16.71;60.11;98523.24;1762011;81;21055;-72
2021/05/23 06:11:25;;;;;;;2.47;1.50;;;;;;;16.81;60.02;98521.55;1762063;81;21505;-73
2021/05/23 06:13:51;;;;;;;3.87;1.55;;;;;;;16.93;59.53;98520.57;1761208;81;21063;-72
2021/05/23 06:16:16;;;;;;;2.35;1.57;;;;;;;17.06;59.27;98523.42;1761994;81;21071;-72
2021/05/23 06:18:42;;;;;;;2.15;1.40;;;;;;;17.06;59.27;98523.42;1760489;81;21036;-72
2021/05/23 06:21:08;;;;;;;1.87;1.55;;;;;;;17.16;59.54;98518.00;1760021;81;21004;-72
2021/05/23 06:23:34;;;;;;;2.08;1.45;;;;;;;17.22;58.30;98523.09;1745683;82;21052;-72
2021/05/23 06:26:00;;;;;;;2.95;1.55;;;;;;;17.20;57.60;98522.16;1748283;82;21564;-72
2021/05/23 06:28:25;;;;;;;2.80;1.70;;;;;;;17.19;57.19;98519.88;1748106;82;21068;-72
2021/05/23 06:30:51;;;;;;;3.58;1.70;;;;;;;17.20;57.29;98518.66;1748368;82;21616;-73
2021/05/23 06:33:17;;;;;;;2.00;1.67;;;;;;;17.24;57.65;98522.03;1742579;82;21621;-72
2021/05/23 06:35:43;;;;;;;2.30;1.35;;;;;;;17.28;57.22;98524.05;1745546;82;21095;-71
2021/05/23 06:38:09;;;;;;;2.20;1.47;;;;;;;17.31;56.94;98512.94;1744184;82;21056;-71
2021/05/23 06:40:35;;;;;;;2.70;1.50;;;;;;;17.34;56.83;98516.77;1748107;82;21079;-71
2021/05/23 06:43:01;;;;;;;3.02;1.72;;;;;;;17.42;56.40;98513.16;1738291;82;21104;-70
2021/05/23 06:45:26;;;;;;;2.80;1.60;;;;;;;17.49;56.97;98523.28;1742856;82;21028;-71
2021/05/23 06:47:52;;;;;;;1.87;1.47;;;;;;;17.60;56.42;98520.77;1747135;82;21119;-71
2021/05/23 06:50:18;;;;;;;2.95;1.50;;;;;;;17.70;56.33;98507.98;1745636;82;21120;-71
2021/05/23 06:52:44;;;;;;;2.83;1.40;;;;;;;17.84;55.91;98513.59;1748771;80;21016;-71
2021/05/23 06:55:11;;;;;;;2.95;1.40;;;;;;;17.93;55.80;98520.50;1752233;80;21064;-71
2021/05/23 06:57:37;;;;;;;2.27;1.50;;;;;;;17.99;55.42;98522.05;1743690;80;21680;-71
2021/05/23 07:00:04;;;;;;;3.17;1.80;;;;;;;18.08;55.16;98515.20;1717241;82;21048;-70
2021/05/23 07:02:30;;;;;;;2.62;1.77;;;;;;;18.15;54.78;98515.55;1743390;82;21036;-70
2021/05/23 07:04:56;;;;;;;2.27;1.60;;;;;;;18.19;54.81;98524.41;1747401;82;21333;-70
2021/05/23 07:07:21;;;;;;;2.80;1.70;;;;;;;18.28;55.05;98527.79;1746158;82;20981;-71
2021/05/23 07:09:47;;;;;;;2.12;1.50;;;;;;;18.35;55.22;98532.41;1744762;82;21052;-70
2021/05/23 07:12:13;;;;;;;2.37;1.80;;;;;;;18.44;54.11;98530.90;1747585;82;21056;-71
2021/05/23 07:14:39;;;;;;;1.77;1.60;;;;;;;18.50;53.79;98523.60;1748156;82;21613;-71
2021/05/23 07:17:04;;;;;;;2.30;1.42;;;;;;;18.54;54.20;98527.72;1746866;82;21723;-72
2021/05/23 07:19:30;;;;;;;2.60;1.50;;;;;;;18.60;54.41;98532.00;1747345;82;21083;-71
2021/05/23 07:21:56;;;;;;;3.08;1.50;;;;;;;18.69;54.52;98529.29;1742024;82;21095;-71
2021/05/23 07:24:22;;;;;;;2.60;1.60;;;;;;;18.80;54.22;98540.64;1738757;82;21094;-71
2021/05/23 07:26:47;;;;;;;5.05;2.00;;;;;;;18.94;54.05;98539.28;1738300;82;21031;-71
2021/05/23 07:29:13;;;;;;;3.02;1.60;;;;;;;19.03;53.48;98540.65;1738704;82;21680;-71
2021/05/23 07:31:39;;;;;;;1.57;1.30;;;;;;;19.14;52.70;98542.19;1738049;82;21552;-71
2021/05/23 07:34:05;;;;;;;2.65;1.60;;;;;;;19.27;52.77;98547.69;1738004;82;21631;-71
2021/05/23 07:36:30;;;;;;;2.15;1.50;;;;;;;19.46;53.17;98546.30;1739158;82;21011;-70
2021/05/23 07:38:56;;;;;;;3.17;1.60;;;;;;;19.63;52.53;98543.98;1734970;82;21087;-71
2021/05/23 07:41:23;;;;;;;3.42;1.52;;;;;;;19.68;51.79;98545.52;1738608;82;21151;-71
2021/05/23 07:43:49;;;;;;;2.30;1.70;;;;;;;19.71;51.79;98547.34;1738266;82;21083;-70
2021/05/23 07:46:14;;;;;;;3.10;1.60;;;;;;;19.73;51.81;98547.66;1713825;82;21568;-71
2021/05/23 07:48:40;;;;;;;2.05;1.37;;;;;;;19.84;50.93;98552.69;1738687;82;21075;-72
2021/05/23 07:51:06;;;;;;;2.50;1.60;;;;;;;19.88;50.96;98549.76;1738658;82;21003;-71
2021/05/23 07:53:32;;;;;;;1.82;1.50;;;;;;;20.01;50.65;98540.69;1735970;82;21055;-71
2021/05/23 07:55:58;;;;;;;2.90;1.50;;;;;;;20.32;49.76;98542.39;1738868;82;21344;-71
2021/05/23 07:58:24;;;;;;;3.90;1.65;;;;;;;20.32;49.76;98542.39;1739197;81;21111;-70
2021/05/23 08:00:50;;;;;;;2.17;1.35;;;;;;;20.62;49.69;98547.47;1743423;81;21039;-71
2021/05/23 08:03:16;;;;;;;3.00;1.40;;;;;;;20.86;48.25;98548.84;1742820;81;21170;-72
2021/05/23 08:05:42;;;;;;;1.85;1.30;;;;;;;21.06;47.99;98555.14;1739241;81;21118;-71
2021/05/23 08:08:07;;;;;;;2.67;1.47;;;;;;;21.19;48.05;98549.38;1737200;82;21126;-71
2021/05/23 08:10:33;;;;;;;2.72;1.57;;;;;;;21.17;48.15;98551.84;1737808;82;21038;-71
2021/05/23 08:12:59;;;;;;;2.65;1.30;;;;;;;21.04;47.35;98564.53;1737897;82;21604;-70
2021/05/23 08:15:25;;;;;;;3.05;1.40;;;;;;;20.92;48.11;98566.91;1738005;82;21059;-70
2021/05/23 08:17:53;;;;;;;1.57;1.32;;;;;;;20.85;47.60;98576.31;1737869;82;20983;-71
2021/05/23 08:20:18;;;;;;;2.08;1.40;;;;;;;20.68;47.83;98572.41;1733190;82;21113;-71
2021/05/23 08:22:44;;;;;;;1.95;1.40;;;;;;;20.49;48.24;98575.27;1739831;82;21393;-71
2021/05/23 08:25:10;;;;;;;3.45;1.80;;;;;;;20.36;48.54;98583.74;1746700;82;21095;-71
2021/05/23 08:27:36;;;;;;;2.65;1.67;;;;;;;20.33;48.80;98580.55;1747068;82;21016;-71
2021/05/23 08:30:03;;;;;;;4.13;1.70;;;;;;;20.35;49.00;98577.30;1703279;82;21106;-70
2021/05/23 08:32:29;;;;;;;2.70;1.40;;;;;;;20.45;49.38;98587.69;1744291;82;21557;-70
2021/05/23 08:34:55;;;;;;;2.02;1.35;;;;;;;20.59;48.77;98579.51;1747147;82;21103;-70
2021/05/23 08:37:21;;;;;;;2.83;1.37;;;;;;;20.73;47.98;98577.30;1746136;82;21585;-71
2021/05/23 08:39:46;;;;;;;3.62;1.82;;;;;;;20.84;48.15;98581.67;1746834;82;21096;-70
2021/05/23 08:42:12;;;;;;;2.37;1.40;;;;;;;20.93;47.77;98584.39;1747395;82;21024;-71
2021/05/23 08:44:38;;;;;;;2.50;1.50;;;;;;;20.98;47.75;98579.60;1746026;82;21111;-70
2021/05/23 08:47:04;;;;;;;2.20;1.40;;;;;;;21.05;47.93;98575.71;1747550;82;21028;-71
2021/05/23 08:49:30;;;;;;;2.42;1.47;;;;;;;21.17;47.96;98577.47;1746696;82;21088;-71
2021/05/23 08:51:56;;;;;;;3.45;1.42;;;;;;;21.25;47.06;98587.52;1741524;82;21126;-71
2021/05/23 08:54:22;;;;;;;3.05;1.40;;;;;;;21.31;46.73;98580.72;1744102;82;21087;-70
2021/05/23 08:56:49;;;;;;;2.98;1.45;;;;;;;21.34;46.40;98588.84;1746328;82;21100;-70
2021/05/23 08:59:16;;;;;;;2.02;1.35;;;;;;;21.40;46.56;98579.31;1745201;82;21131;-70
2021/05/23 09:01:42;;;;;;;2.55;1.37;;;;;;;21.52;46.56;98579.65;1741225;82;21646;-71
2021/05/23 09:04:09;;;;;;;3.22;1.50;;;;;;;21.68;46.28;98579.81;1743105;82;21064;-71
2021/05/23 09:06:38;;;;;;;2.40;1.30;;;;;;;21.83;45.86;98576.45;1747704;82;21087;-70
2021/05/23 09:09:06;;;;;;;2.15;1.47;;;;;;;21.91;45.50;98578.97;1745166;82;21084;-70
2021/05/23 09:11:32;;;;;;;2.77;1.45;;;;;;;21.92;45.00;98572.81;1747375;82;21668;-71
2021/05/23 09:13:58;;;;;;;2.08;1.30;;;;;;;21.88;45.45;98568.09;1745803;82;21680;-71
2021/05/23 09:16:23;;;;;;;4.08;1.40;;;;;;;21.88;45.39;98569.47;1746520;82;21051;-70
2021/05/23 09:18:54;;;;;;;2.27;1.32;;;;;;;21.90;44.83;98578.81;1747817;82;21100;-71
2021/05/23 09:21:25;;;;;;;3.12;1.30;;;;;;;21.87;44.84;98572.09;1743259;82;21004;-71
2021/05/23 09:23:53;;;;;;;3.22;1.50;;;;;;;21.86;44.94;98570.58;1697124;83;21660;-73
2021/05/23 09:26:22;;;;;;;2.60;1.62;;;;;;;21.88;44.50;98572.23;1717687;83;21099;-74
2021/05/23 09:28:48;;;;;;;2.00;1.37;;;;;;;21.94;45.07;98567.58;1722659;83;21083;-72
2021/05/23 09:31:16;;;;;;;;;;;;;;;21.96;44.45;98562.31;1725329;83;21060;-73
2021/05/23 09:33:43;;;;;;;2.70;1.30;;;;;;;22.05;45.06;98559.46;1719386;83;20176;-73
2021/05/23 09:36:09;;;;;;;2.30;1.05;;;;;;;22.07;43.19;98554.22;1722778;83;21048;-73
2021/05/23 09:38:35;;;;;;;2.00;1.00;;;;;;;21.94;41.82;98554.52;1693189;84;21541;-73
2021/05/23 09:41:01;;;;;;;1.65;1.00;;;;;;;21.83;42.01;98558.48;1693873;84;21569;-73
2021/05/23 09:43:27;;;;;;;1.72;1.05;;;;;;;21.72;41.71;98550.76;1721956;83;21605;-72
2021/05/23 09:45:53;;;;;;;3.12;1.02;;;;;;;21.75;42.38;98549.67;1701285;83;21074;-73
2021/05/23 09:48:26;;;;;;;1.85;1.10;;;;;;;21.81;41.66;98552.66;1697885;83;21051;-72
2021/05/23 09:50:55;;;;;;;3.77;1.10;;;;;;;21.88;41.65;98561.17;1732065;82;21048;-73
2021/05/23 09:53:28;;;;;;;2.15;1.10;;;;;;;22.01;42.27;98555.36;1720084;82;21458;-73
2021/05/23 09:55:57;;;;;;;1.98;1.10;;;;;;;22.08;41.22;98557.74;1723190;83;21460;-72
2021/05/23 09:58:29;;;;;;;2.22;1.20;;;;;;;22.31;40.52;98561.63;1723451;83;21056;-73
2021/05/23 10:00:55;;;;;;;1.82;0.90;;;;;;;22.69;39.87;98559.27;1722252;83;21059;-73
2021/05/23 10:03:29;;;;;;;3.12;1.27;;;;;;;23.19;38.92;98559.18;1728870;82;21028;-72
2021/05/23 10:05:55;;;;;;;3.00;0.93;;;;;;;23.65;38.50;98557.01;1654007;86;21396;-73
2021/05/23 10:08:20;;;;;;;1.72;0.98;;;;;;;24.18;37.51;98551.41;1686241;83;21063;-73
2021/05/23 10:10:47;;;;;;;3.22;0.90;;;;;;;24.69;37.08;98555.27;1686731;85;21094;-73
2021/05/23 10:13:13;;;;;;;1.30;1.00;;;;;;;25.18;36.39;98559.56;1686392;85;21067;-69
2021/05/23 10:15:39;;;;;;;1.30;0.90;;;;;;;25.49;36.18;98555.72;1677484;84;21107;-70
2021/05/23 10:18:07;;;;;;;2.65;1.17;;;;;;;25.67;34.59;98551.05;1666845;85;21067;-70
2021/05/23 10:20:32;;;;;;;2.12;1.10;;;;;;;25.79;34.06;98560.94;1658626;85;21100;-71
2021/05/23 10:23:00;;;;;;;3.12;1.20;;;;;;;25.65;33.94;98554.34;1673593;84;21630;-70
2021/05/23 10:25:26;;;;;;;1.37;0.85;;;;;;;25.69;33.77;98542.97;1667410;84;21128;-70
2021/05/23 10:27:52;;;;;;;1.37;0.90;;;;;;;25.76;33.60;98552.84;1730005;83;21519;-69
2021/05/23 10:30:19;;;;;;;1.35;0.98;;;;;;;25.84;33.20;98547.69;1731390;83;21132;-69
2021/05/23 10:32:44;;;;;;;2.20;1.02;;;;;;;25.91;32.95;98543.63;1669551;84;21033;-72
2021/05/23 10:35:14;;;;;;;1.95;0.80;;;;;;;25.94;32.12;98543.25;1729765;82;21693;-70
2021/05/23 10:37:41;;;;;;;1.37;0.90;;;;;;;25.86;32.15;98549.34;1729774;83;21050;-70
2021/05/23 10:40:17;;;;;;;0.95;0.85;;;;;;;25.78;32.42;98555.25;1700233;84;21588;-69
2021/05/23 10:42:54;;;;;;;1.30;0.90;;;;;;;25.73;32.49;98549.66;1697874;84;21064;-70
2021/05/23 10:45:27;;;;;;;1.62;0.80;;;;;;;25.67;32.48;98554.61;1700407;84;21113;-70
2021/05/23 10:47:53;;;;;;;1.15;0.80;;;;;;;25.76;32.74;98551.45;1699059;84;21046;-70
2021/05/23 10:50:30;;;;;;;1.92;0.80;;;;;;;25.96;32.90;98554.64;1678831;84;21125;-70
2021/05/23 10:52:57;;;;;;;2.55;1.07;;;;;;;26.13;31.77;98553.35;1701060;84;21039;-70
2021/05/23 10:55:23;;;;;;;1.20;0.90;;;;;;;26.23;31.72;98555.89;1700310;84;21678;-69
2021/05/23 10:57:50;;;;;;;1.47;0.98;;;;;;;26.33;31.51;98556.52;1701596;84;21073;-69
2021/05/23 11:00:36;;;;;;;1.02;0.80;;;;;;;26.41;31.63;98558.15;1698246;84;21217;-70
2021/05/23 11:03:12;;;;;;;1.60;0.90;;;;;;;25.60;31.52;98447.29;1730612;83;21621;-69
2021/05/23 11:05:37;;;;;;;1.45;0.90;;;;;;;26.30;31.45;98557.53;1729197;83;21684;-69
2021/05/23 11:08:07;;;;;;;1.40;1.10;;;;;;;26.34;31.37;98560.05;1731323;83;20987;-70
2021/05/23 11:10:46;;;;;;;1.50;0.90;;;;;;;26.24;31.91;98560.94;1729384;81;21090;-70
2021/05/23 11:13:17;;;;;;;2.95;1.00;;;;;;;26.08;32.70;98560.31;1728910;81;21078;-73
2021/05/23 11:15:44;;;;;;;2.22;0.90;;;;;;;25.90;33.30;98563.74;1723918;83;21132;-71
2021/05/23 11:18:23;;;;;;;2.98;1.10;;;;;;;25.71;33.74;98571.67;1707917;83;21096;-73
2021/05/23 11:20:59;;;;;;;1.57;1.00;;;;;;;25.46;33.65;98568.60;1730901;83;21092;-71
2021/05/23 11:23:26;;;;;;;2.72;1.20;;;;;;;25.19;34.07;98574.20;1724580;82;21109;-73
2021/05/23 11:26:06;;;;;;;1.98;1.20;;;;;;;24.91;34.52;98576.83;1723499;83;21098;-71
2021/05/23 11:28:31;;;;;;;2.98;1.17;;;;;;;24.72;35.00;98570.95;1721063;83;22302;-72
2021/05/23 11:30:57;;;;;;;1.70;1.10;;;;;;;24.70;34.81;98572.83;1723256;83;21113;-71
2021/05/23 11:33:23;;;;;;;2.95;1.27;;;;;;;24.70;34.21;98569.30;1723740;83;21053;-72
2021/05/23 11:35:53;;;;;;;3.33;1.30;;;;;;;24.75;33.77;98572.10;1723328;83;22219;-74